createdAt,value
2017-10-19T00:01:09.799Z,83.50
2017-10-19T00:03:37.358Z,83.50
2017-10-19T00:06:06.419Z,83.50
2017-10-19T00:08:34.017Z,83.40
2017-10-19T00:11:01.592Z,83.50
2017-10-19T00:13:29.572Z,83.30
2017-10-19T00:15:58.183Z,84.00
2017-10-19T00:18:25.747Z,83.30
2017-10-19T00:20:53.355Z,82.70
2017-10-19T00:23:21.038Z,83.60
2017-10-19T00:25:49.603Z,83.50
2017-10-19T00:28:17.180Z,83.50
2017-10-19T00:30:45.529Z,84.10
2017-10-19T00:33:13.130Z,84.00
2017-10-19T00:35:40.711Z,83.80
2017-10-19T00:38:08.334Z,84.10
2017-10-19T00:40:35.900Z,84.00
2017-10-19T00:43:04.229Z,84.00
2017-10-19T00:45:31.836Z,84.00
2017-10-19T00:48:00.178Z,83.90
2017-10-19T00:50:28.160Z,83.70
2017-10-19T00:52:55.705Z,83.50
2017-10-19T00:55:23.264Z,83.80
2017-10-19T00:57:50.851Z,83.50
2017-10-19T01:00:18.453Z,83.10
2017-10-19T01:02:46.068Z,83.00
2017-10-19T01:05:13.640Z,83.10
2017-10-19T01:07:41.198Z,83.70
2017-10-19T01:10:08.814Z,82.90
2017-10-19T01:12:36.375Z,83.40
2017-10-19T01:15:03.983Z,83.40
2017-10-19T01:17:32.307Z,83.20
2017-10-19T01:19:59.952Z,83.20
2017-10-19T01:22:27.752Z,83.70
2017-10-19T01:24:55.451Z,83.10
2017-10-19T01:27:23.824Z,83.00
2017-10-19T01:29:51.541Z,82.90
2017-10-19T01:32:19.098Z,82.90
2017-10-19T01:34:46.707Z,82.80
2017-10-19T01:37:15.336Z,83.00
2017-10-19T01:39:42.955Z,82.90
2017-10-19T01:42:10.556Z,82.90
2017-10-19T01:44:38.116Z,82.80
2017-10-19T01:47:05.715Z,83.00
2017-10-19T01:49:46.659Z,82.90
2017-10-19T01:52:14.247Z,82.80
2017-10-19T01:54:41.789Z,83.50
2017-10-19T01:57:09.383Z,83.60
2017-10-19T01:59:37.700Z,83.70
2017-10-19T02:02:05.242Z,83.50
2017-10-19T02:04:32.875Z,83.60
2017-10-19T02:07:00.446Z,83.50
2017-10-19T02:09:29.100Z,83.60
2017-10-19T02:11:56.676Z,83.50
2017-10-19T02:14:24.260Z,83.60
2017-10-19T02:16:52.641Z,83.60
2017-10-19T02:19:20.192Z,83.60
2017-10-19T02:21:47.788Z,83.60
2017-10-19T02:24:16.163Z,83.60
2017-10-19T02:26:43.755Z,83.50
2017-10-19T02:29:11.353Z,83.50
2017-10-19T02:31:38.916Z,83.00
2017-10-19T02:34:06.917Z,83.00
2017-10-19T02:36:34.472Z,83.20
2017-10-19T02:39:02.132Z,82.90
2017-10-19T02:41:29.859Z,82.70
2017-10-19T02:43:57.430Z,82.80
2017-10-19T02:46:25.425Z,83.00
2017-10-19T02:48:52.984Z,82.90
2017-10-19T02:51:20.932Z,82.70
2017-10-19T02:53:48.530Z,83.40
2017-10-19T02:56:16.085Z,83.40
2017-10-19T02:58:43.968Z,83.40
2017-10-19T03:01:11.522Z,83.30
2017-10-19T03:03:39.085Z,83.30
2017-10-19T03:06:06.674Z,83.30
2017-10-19T03:08:34.229Z,83.30
2017-10-19T03:11:02.582Z,84.10
2017-10-19T03:13:30.141Z,83.30
2017-10-19T03:15:57.731Z,83.30
2017-10-19T03:18:25.318Z,83.30
2017-10-19T03:20:52.877Z,83.30
2017-10-19T03:23:20.778Z,83.30
2017-10-19T03:25:48.330Z,83.30
2017-10-19T03:28:16.147Z,83.30
2017-10-19T03:30:44.639Z,83.20
2017-10-19T03:33:13.243Z,83.20
2017-10-19T03:35:40.845Z,83.20
2017-10-19T03:38:08.392Z,83.10
2017-10-19T03:40:36.079Z,83.20
2017-10-19T03:43:04.444Z,83.30
2017-10-19T03:45:31.995Z,83.20
2017-10-19T03:47:59.765Z,83.20
2017-10-19T03:50:27.865Z,83.30
2017-10-19T03:52:56.326Z,83.40
2017-10-19T03:55:23.922Z,83.30
2017-10-19T03:57:51.494Z,83.30
2017-10-19T04:00:19.119Z,83.40
2017-10-19T04:02:47.442Z,83.40
2017-10-19T04:05:15.017Z,83.40
2017-10-19T04:07:42.622Z,83.40
2017-10-19T04:10:10.177Z,83.40
2017-10-19T04:12:39.032Z,83.50
2017-10-19T04:15:06.589Z,83.40
2017-10-19T04:17:34.133Z,83.50
2017-10-19T04:20:01.727Z,83.50
2017-10-19T04:22:29.283Z,83.50
2017-10-19T04:24:56.878Z,83.50
2017-10-19T04:27:24.605Z,83.50
2017-10-19T04:29:52.150Z,83.60
2017-10-19T04:32:19.740Z,83.50
2017-10-19T04:34:47.430Z,83.50
2017-10-19T04:37:15.432Z,83.50
2017-10-19T04:39:43.005Z,83.50
2017-10-19T04:42:10.550Z,83.50
2017-10-19T04:44:38.157Z,83.50
2017-10-19T04:47:05.709Z,83.60
2017-10-19T04:49:33.538Z,83.50
2017-10-19T04:52:01.083Z,83.50
2017-10-19T04:54:28.647Z,83.50
2017-10-19T04:56:56.248Z,83.60
2017-10-19T04:59:23.838Z,83.60
2017-10-19T05:01:52.476Z,83.70
2017-10-19T05:04:20.039Z,83.50
2017-10-19T05:06:47.838Z,83.60
2017-10-19T05:09:16.220Z,83.70
2017-10-19T05:11:43.774Z,83.50
2017-10-19T05:14:12.431Z,83.60
2017-10-19T05:16:39.991Z,83.60
2017-10-19T05:19:07.535Z,83.60
2017-10-19T05:21:35.117Z,83.60
2017-10-19T05:24:02.677Z,83.60
2017-10-19T05:26:31.193Z,83.60
2017-10-19T05:28:58.737Z,84.20
2017-10-19T05:31:26.290Z,83.60
2017-10-19T05:33:53.892Z,83.60
2017-10-19T05:36:21.450Z,83.60
2017-10-19T05:38:49.054Z,83.90
2017-10-19T05:41:16.606Z,84.10
2017-10-19T05:43:44.134Z,84.20
2017-10-19T05:46:11.901Z,84.00
2017-10-19T05:48:39.441Z,83.90
2017-10-19T05:51:07.345Z,84.20
2017-10-19T05:53:34.890Z,84.10
2017-10-19T05:56:02.587Z,84.10
2017-10-19T05:58:30.165Z,84.00
2017-10-19T06:00:58.473Z,83.80
2017-10-19T06:03:26.088Z,83.60
2017-10-19T06:05:53.629Z,83.60
2017-10-19T06:08:21.174Z,83.80
2017-10-19T06:10:48.759Z,83.60
2017-10-19T06:13:16.319Z,83.60
2017-10-19T06:15:43.907Z,83.50
2017-10-19T06:18:11.465Z,83.60
2017-10-19T06:20:39.892Z,83.80
2017-10-19T06:23:07.487Z,83.80
2017-10-19T06:25:35.803Z,83.80
2017-10-19T06:28:03.394Z,83.80
2017-10-19T06:30:30.950Z,83.90
2017-10-19T06:32:58.509Z,83.90
2017-10-19T06:35:26.124Z,83.70
2017-10-19T06:37:54.474Z,83.80
2017-10-19T06:40:22.421Z,83.70
2017-10-19T06:42:49.959Z,83.70
2017-10-19T06:45:17.525Z,83.70
2017-10-19T06:47:45.191Z,84.30
2017-10-19T06:50:12.762Z,83.80
2017-10-19T06:52:40.747Z,83.80
2017-10-19T06:55:08.358Z,83.80
2017-10-19T06:57:35.922Z,83.80
2017-10-19T07:00:03.506Z,83.80
2017-10-19T07:02:31.065Z,83.80
2017-10-19T07:04:58.662Z,83.90
2017-10-19T07:07:26.985Z,83.70
2017-10-19T07:09:54.569Z,83.90
2017-10-19T07:12:22.157Z,83.90
2017-10-19T07:14:50.494Z,84.00
2017-10-19T07:17:18.085Z,84.00
2017-10-19T07:19:47.134Z,84.00
2017-10-19T07:22:14.668Z,84.00
2017-10-19T07:24:42.414Z,84.10
2017-10-19T07:27:10.721Z,84.00
2017-10-19T07:29:38.306Z,83.70
2017-10-19T07:32:05.847Z,83.80
2017-10-19T07:34:33.386Z,83.80
2017-10-19T07:37:00.974Z,83.70
2017-10-19T07:39:28.529Z,83.70
2017-10-19T07:41:56.624Z,83.60
2017-10-19T07:44:24.183Z,83.70
2017-10-19T07:46:51.734Z,83.50
2017-10-19T07:49:19.484Z,83.40
2017-10-19T07:51:47.025Z,83.30
2017-10-19T07:54:14.677Z,83.20
2017-10-19T07:56:42.264Z,83.00
2017-10-19T07:59:09.809Z,82.80
2017-10-19T08:01:37.656Z,82.70
2017-10-19T08:04:05.213Z,82.50
2017-10-19T08:06:33.870Z,82.30
2017-10-19T08:09:01.441Z,82.20
2017-10-19T08:11:29.022Z,82.20
2017-10-19T08:13:57.369Z,81.60
2017-10-19T08:16:24.917Z,81.50
2017-10-19T08:18:52.523Z,81.30
2017-10-19T08:21:20.086Z,81.40
2017-10-19T08:23:48.588Z,81.60
2017-10-19T08:26:16.181Z,81.50
2017-10-19T08:28:44.545Z,80.50
2017-10-19T08:31:12.394Z,81.60
2017-10-19T08:33:40.027Z,81.00
2017-10-19T08:36:08.338Z,80.40
2017-10-19T08:38:35.937Z,80.40
2017-10-19T08:41:03.483Z,80.20
2017-10-19T08:43:31.437Z,80.10
2017-10-19T08:45:58.975Z,80.10
2017-10-19T08:48:27.029Z,79.60
2017-10-19T08:50:55.390Z,79.90
2017-10-19T08:53:22.947Z,79.30
2017-10-19T08:55:51.330Z,79.50
2017-10-19T08:58:18.914Z,78.80
2017-10-19T09:00:46.499Z,78.40
2017-10-19T09:03:14.258Z,78.50
2017-10-19T09:05:41.811Z,78.60
2017-10-19T09:08:09.715Z,78.60
2017-10-19T09:10:37.266Z,78.60
2017-10-19T09:13:04.829Z,78.40
2017-10-19T09:15:32.429Z,78.30
2017-10-19T09:17:59.988Z,78.10
2017-10-19T09:20:28.638Z,77.90
2017-10-19T09:22:56.190Z,77.90
2017-10-19T09:25:23.730Z,77.60
2017-10-19T09:27:51.457Z,77.40
2017-10-19T09:30:19.781Z,77.20
2017-10-19T09:32:47.642Z,77.10
2017-10-19T09:35:15.207Z,77.00
2017-10-19T09:37:42.792Z,76.80
2017-10-19T09:40:10.385Z,76.70
2017-10-19T09:42:38.699Z,76.70
2017-10-19T09:45:06.306Z,76.70
2017-10-19T09:47:34.735Z,77.00
2017-10-19T09:50:02.284Z,76.90
2017-10-19T09:52:29.881Z,76.70
2017-10-19T09:54:57.459Z,76.60
2017-10-19T09:57:25.417Z,76.70
2017-10-19T09:59:52.996Z,76.40
2017-10-19T10:02:20.558Z,76.30
2017-10-19T10:04:48.934Z,76.20
2017-10-19T10:07:16.481Z,76.20
2017-10-19T10:09:44.808Z,75.80
2017-10-19T10:12:12.410Z,75.60
2017-10-19T10:14:40.076Z,75.60
2017-10-19T10:17:07.634Z,75.70
2017-10-19T10:19:35.238Z,75.60
2017-10-19T10:22:02.753Z,75.70
2017-10-19T10:24:30.595Z,75.60
2017-10-19T10:26:58.220Z,75.70
2017-10-19T10:29:26.000Z,75.80
2017-10-19T10:31:53.721Z,75.80
2017-10-19T10:34:22.099Z,75.80
2017-10-19T10:36:49.654Z,75.80
2017-10-19T10:39:17.980Z,76.00
2017-10-19T10:41:45.827Z,75.80
2017-10-19T10:44:13.477Z,75.80
2017-10-19T10:46:41.937Z,75.80
2017-10-19T10:49:10.617Z,76.10
2017-10-19T10:51:40.209Z,75.80
2017-10-19T10:54:07.787Z,75.80
2017-10-19T10:56:36.168Z,76.20
2017-10-19T10:59:03.730Z,76.00
2017-10-19T11:01:32.048Z,76.00
2017-10-19T11:03:59.736Z,76.00
2017-10-19T11:06:27.300Z,76.30
2017-10-19T11:08:55.631Z,76.50
2017-10-19T11:11:23.531Z,77.10
2017-10-19T11:13:51.070Z,77.00
2017-10-19T11:16:18.738Z,77.00
2017-10-19T11:18:46.344Z,77.30
2017-10-19T11:21:13.908Z,77.50
2017-10-19T11:23:41.483Z,77.50
2017-10-19T11:26:09.477Z,77.50
2017-10-19T11:28:37.047Z,77.80
2017-10-19T11:31:04.649Z,77.90
2017-10-19T11:33:32.602Z,78.10
2017-10-19T11:36:00.159Z,78.20
2017-10-19T11:38:27.719Z,78.30
2017-10-19T11:40:55.792Z,78.40
2017-10-19T11:43:23.346Z,78.60
2017-10-19T11:45:50.917Z,78.50
2017-10-19T11:48:18.882Z,78.80
2017-10-19T11:50:46.454Z,79.10
2017-10-19T11:53:14.021Z,79.00
2017-10-19T11:55:41.641Z,79.10
2017-10-19T11:58:09.285Z,79.20
2017-10-19T12:00:36.820Z,79.20
2017-10-19T12:03:05.204Z,79.30
2017-10-19T12:05:32.762Z,79.20
2017-10-19T12:08:00.356Z,79.20
2017-10-19T12:10:27.957Z,79.30
2017-10-19T12:12:55.538Z,79.30
2017-10-19T12:15:23.927Z,79.40
2017-10-19T12:17:51.498Z,79.20
2017-10-19T12:20:19.357Z,79.30
2017-10-19T12:22:47.524Z,79.40
2017-10-19T12:25:15.129Z,79.40
2017-10-19T12:27:42.991Z,79.40
2017-10-19T12:30:10.552Z,79.50
2017-10-19T12:32:38.112Z,79.40
2017-10-19T12:35:06.096Z,79.50
2017-10-19T12:37:33.798Z,79.00
2017-10-19T12:40:02.160Z,78.90
2017-10-19T12:42:29.839Z,79.00
2017-10-19T12:44:57.427Z,78.80
2017-10-19T12:47:25.434Z,79.00
2017-10-19T12:49:52.985Z,79.40
2017-10-19T12:52:20.530Z,79.00
2017-10-19T12:54:48.262Z,78.90
2017-10-19T12:57:15.824Z,78.70
2017-10-19T12:59:43.454Z,78.80
2017-10-19T13:02:11.082Z,78.60
2017-10-19T13:04:39.375Z,79.40
2017-10-19T13:07:06.946Z,78.70
2017-10-19T13:09:34.653Z,78.70
2017-10-19T13:12:02.284Z,78.50
2017-10-19T13:14:30.613Z,78.70
2017-10-19T13:16:58.360Z,78.70
2017-10-19T13:19:26.007Z,78.50
2017-10-19T13:21:53.613Z,78.10
2017-10-19T13:24:21.165Z,78.10
2017-10-19T13:26:48.766Z,78.20
2017-10-19T13:29:16.334Z,78.00
2017-10-19T13:31:44.742Z,78.10
2017-10-19T13:34:12.450Z,78.10
2017-10-19T13:36:40.502Z,78.20
2017-10-19T13:39:08.124Z,78.10
2017-10-19T13:41:35.679Z,77.90
2017-10-19T13:44:03.302Z,77.90
2017-10-19T13:46:30.868Z,78.00
2017-10-19T13:48:58.591Z,78.00
2017-10-19T13:51:26.138Z,77.90
2017-10-19T13:53:53.742Z,78.20
2017-10-19T13:56:21.285Z,78.20
2017-10-19T13:58:49.106Z,78.10
2017-10-19T14:01:16.730Z,78.40
2017-10-19T14:03:44.597Z,78.10
2017-10-19T14:06:12.250Z,77.90
2017-10-19T14:08:39.812Z,77.90
2017-10-19T14:11:07.499Z,78.20
2017-10-19T14:13:35.037Z,77.90
2017-10-19T14:16:02.617Z,77.90
2017-10-19T14:18:30.181Z,77.90
2017-10-19T14:20:58.555Z,78.10
2017-10-19T14:23:26.103Z,78.20
2017-10-19T14:25:54.469Z,78.20
2017-10-19T14:28:22.030Z,78.20
2017-10-19T14:30:49.663Z,78.70
2017-10-19T14:33:17.221Z,77.80
2017-10-19T14:35:45.061Z,77.80
2017-10-19T14:38:12.678Z,77.90
2017-10-19T14:40:40.367Z,78.40
2017-10-19T14:43:07.963Z,77.80
2017-10-19T14:45:35.555Z,77.90
2017-10-19T14:48:03.518Z,78.00
2017-10-19T14:50:36.645Z,77.90
2017-10-19T14:53:04.577Z,77.80
2017-10-19T14:55:32.176Z,78.00
2017-10-19T14:57:59.768Z,77.90
2017-10-19T15:00:27.340Z,78.00
2017-10-19T15:02:54.954Z,78.20
2017-10-19T15:05:22.514Z,78.00
2017-10-19T15:07:52.815Z,78.10
2017-10-19T15:10:21.235Z,78.10
2017-10-19T15:12:51.220Z,78.10
2017-10-19T15:15:19.897Z,78.10
2017-10-19T15:17:52.325Z,78.10
2017-10-19T15:20:20.781Z,78.20
2017-10-19T15:22:48.862Z,78.30
2017-10-19T15:25:16.474Z,78.30
2017-10-19T15:27:44.073Z,78.40
2017-10-19T15:30:13.817Z,78.40
2017-10-19T15:32:41.393Z,78.60
2017-10-19T15:35:09.826Z,78.60
2017-10-19T15:37:39.362Z,78.90
2017-10-19T15:40:06.987Z,78.70
2017-10-19T15:42:34.557Z,78.80
2017-10-19T15:45:04.090Z,78.80
2017-10-19T15:47:33.572Z,78.80
2017-10-19T15:50:01.203Z,78.80
2017-10-19T15:52:33.936Z,78.80
2017-10-19T15:55:01.583Z,78.70
2017-10-19T15:57:29.169Z,78.60
2017-10-19T15:59:57.169Z,78.60
2017-10-19T16:02:24.760Z,78.60
2017-10-19T16:04:52.325Z,78.50
2017-10-19T16:07:19.954Z,78.50
2017-10-19T16:09:48.284Z,79.10
2017-10-19T16:12:15.881Z,78.50
2017-10-19T16:14:43.455Z,78.50
2017-10-19T16:17:11.098Z,78.50
2017-10-19T16:19:40.203Z,78.40
2017-10-19T16:22:07.819Z,78.40
2017-10-19T16:24:35.387Z,78.30
2017-10-19T16:27:03.470Z,78.30
2017-10-19T16:29:31.054Z,78.30
2017-10-19T16:31:58.658Z,78.20
2017-10-19T16:34:26.416Z,78.20
2017-10-19T16:36:53.960Z,78.70
2017-10-19T16:39:22.321Z,78.10
2017-10-19T16:41:49.874Z,78.10
2017-10-19T16:44:17.482Z,78.10
2017-10-19T16:46:45.054Z,78.10
2017-10-19T16:49:12.665Z,78.00
2017-10-19T16:51:40.994Z,78.00
2017-10-19T16:54:08.584Z,78.00
2017-10-19T16:56:36.170Z,77.90
2017-10-19T16:59:03.775Z,77.90
2017-10-19T17:01:31.326Z,77.90
2017-10-19T17:03:58.925Z,77.90
2017-10-19T17:06:26.504Z,78.20
2017-10-19T17:08:54.880Z,78.40
2017-10-19T17:11:22.451Z,78.40
2017-10-19T17:13:50.817Z,78.50
2017-10-19T17:16:18.386Z,78.50
2017-10-19T17:18:46.777Z,78.70
2017-10-19T17:21:14.350Z,78.60
2017-10-19T17:23:41.962Z,78.60
2017-10-19T17:26:09.821Z,78.70
2017-10-19T17:28:38.280Z,78.70
2017-10-19T17:31:05.841Z,78.80
2017-10-19T17:33:33.601Z,78.70
2017-10-19T17:36:01.754Z,78.90
2017-10-19T17:38:29.422Z,79.10
2017-10-19T17:40:57.068Z,79.00
2017-10-19T17:43:25.090Z,79.10
2017-10-19T17:45:52.769Z,79.20
2017-10-19T17:48:20.547Z,79.30
2017-10-19T17:50:48.143Z,79.40
2017-10-19T17:53:16.844Z,79.40
2017-10-19T17:55:44.549Z,79.50
2017-10-19T17:58:12.115Z,79.50
2017-10-19T18:00:40.490Z,79.60
2017-10-19T18:03:08.056Z,79.60
2017-10-19T18:05:36.428Z,79.80
2017-10-19T18:08:04.323Z,79.70
2017-10-19T18:10:31.918Z,79.80
2017-10-19T18:13:01.349Z,79.90
2017-10-19T18:15:29.735Z,80.00
2017-10-19T18:17:57.527Z,79.80
2017-10-19T18:20:25.351Z,80.10
2017-10-19T18:22:52.919Z,80.10
2017-10-19T18:25:20.541Z,80.20
2017-10-19T18:27:48.814Z,80.20
2017-10-19T18:30:16.414Z,80.20
2017-10-19T18:32:43.966Z,80.20
2017-10-19T18:35:11.685Z,80.30
2017-10-19T18:37:39.998Z,80.40
2017-10-19T18:40:07.596Z,80.30
2017-10-19T18:42:35.356Z,80.40
2017-10-19T18:45:03.994Z,80.60
2017-10-19T18:47:31.653Z,80.50
2017-10-19T18:49:59.518Z,80.50
2017-10-19T18:52:27.957Z,80.50
2017-10-19T18:54:55.986Z,80.60
2017-10-19T18:57:24.403Z,80.40
2017-10-19T18:59:52.058Z,80.40
2017-10-19T19:04:54.753Z,80.30
2017-10-19T19:07:23.214Z,80.60
2017-10-19T19:09:50.786Z,80.60
2017-10-19T19:12:19.499Z,80.70
2017-10-19T19:14:49.072Z,80.50
2017-10-19T19:17:16.726Z,80.80
2017-10-19T19:19:44.946Z,81.00
2017-10-19T19:22:14.097Z,80.80
2017-10-19T19:24:41.687Z,80.80
2017-10-19T19:27:10.250Z,80.80
2017-10-19T19:29:38.791Z,80.80
2017-10-19T19:32:06.426Z,80.80
2017-10-19T19:34:34.111Z,80.80
2017-10-19T19:37:01.723Z,80.70
2017-10-19T19:39:30.089Z,80.80
2017-10-19T19:41:57.736Z,80.70
2017-10-19T19:44:26.425Z,80.70
2017-10-19T19:46:54.138Z,80.70
2017-10-19T19:49:21.740Z,80.70
2017-10-19T19:51:49.405Z,80.70
2017-10-19T19:54:16.979Z,80.60
2017-10-19T19:56:44.634Z,80.60
2017-10-19T19:59:12.204Z,80.60
2017-10-19T20:01:39.891Z,80.60
2017-10-19T20:04:08.219Z,80.60
2017-10-19T20:06:35.833Z,80.60
2017-10-19T20:09:03.387Z,80.60
2017-10-19T20:11:31.778Z,80.70
2017-10-19T20:14:00.127Z,80.70
2017-10-19T20:16:29.120Z,80.70
2017-10-19T20:18:57.376Z,80.70
2017-10-19T20:21:25.122Z,80.30
2017-10-19T20:23:53.315Z,80.80
2017-10-19T20:26:23.278Z,80.70
2017-10-19T20:28:51.753Z,80.70
2017-10-19T20:31:19.783Z,80.70
2017-10-19T20:33:47.468Z,80.60
2017-10-19T20:36:18.270Z,80.60
2017-10-19T20:38:46.756Z,80.60
2017-10-19T20:41:15.140Z,80.50
2017-10-19T20:43:42.782Z,80.50
2017-10-19T20:46:10.358Z,80.50
2017-10-19T20:48:39.070Z,80.50
2017-10-19T20:51:06.638Z,80.60
2017-10-19T20:53:35.036Z,80.70
2017-10-19T20:56:03.750Z,81.20
2017-10-19T20:58:32.448Z,80.60
2017-10-19T21:01:00.955Z,80.70
2017-10-19T21:03:29.309Z,80.70
2017-10-19T21:05:57.697Z,80.70
2017-10-19T21:08:25.763Z,80.70
2017-10-19T21:10:54.156Z,80.70
2017-10-19T21:13:23.306Z,80.70
2017-10-19T21:15:50.874Z,80.70
2017-10-19T21:18:18.483Z,80.70
2017-10-19T21:20:46.802Z,81.20
2017-10-19T21:23:14.382Z,80.70
2017-10-19T21:25:41.925Z,80.80
2017-10-19T21:28:09.527Z,80.80
2017-10-19T21:30:37.087Z,80.80
2017-10-19T21:33:04.663Z,80.80
2017-10-19T21:35:32.995Z,80.80
2017-10-19T21:38:00.586Z,80.80
2017-10-19T21:40:28.844Z,80.80
2017-10-19T21:42:56.467Z,80.80
2017-10-19T21:45:24.027Z,80.90
2017-10-19T21:47:51.631Z,80.70
2017-10-19T21:50:19.191Z,80.70
2017-10-19T21:52:47.116Z,80.50
2017-10-19T21:55:14.676Z,80.50
2017-10-19T21:57:42.335Z,80.40
2017-10-19T22:00:09.973Z,80.40
2017-10-19T22:02:38.303Z,80.40
2017-10-19T22:05:06.199Z,80.30
2017-10-19T22:07:33.748Z,80.50
2017-10-19T22:10:01.302Z,80.50
2017-10-19T22:12:29.256Z,80.50
2017-10-19T22:14:56.814Z,81.20
2017-10-19T22:17:24.598Z,80.60
2017-10-19T22:19:52.486Z,80.60
2017-10-19T22:22:20.789Z,80.60
2017-10-19T22:24:48.361Z,80.50
2017-10-19T22:27:15.963Z,80.50
2017-10-19T22:29:43.523Z,80.50
2017-10-19T22:32:11.155Z,80.50
2017-10-19T22:34:38.716Z,80.50
2017-10-19T22:37:06.309Z,80.50
2017-10-19T22:39:33.887Z,80.50
2017-10-19T22:42:01.505Z,80.70
2017-10-19T22:44:29.617Z,80.50
2017-10-19T22:46:57.222Z,80.70
2017-10-19T22:49:24.776Z,80.80
2017-10-19T22:51:52.361Z,81.00
2017-10-19T22:54:19.917Z,81.00
2017-10-19T22:56:47.770Z,81.00
2017-10-19T22:59:15.493Z,81.00
2017-10-19T23:01:44.590Z,81.20
2017-10-19T23:04:12.141Z,81.10
2017-10-19T23:06:39.697Z,81.30
2017-10-19T23:09:07.278Z,81.30
2017-10-19T23:11:35.589Z,81.60
2017-10-19T23:14:03.414Z,81.60
2017-10-19T23:16:30.954Z,81.60
2017-10-19T23:18:58.545Z,81.60
2017-10-19T23:21:26.865Z,81.70
2017-10-19T23:23:54.633Z,81.70
2017-10-19T23:26:22.187Z,81.90
2017-10-19T23:28:50.113Z,81.90
2017-10-19T23:31:17.678Z,81.60
2017-10-19T23:33:46.021Z,82.00
2017-10-19T23:36:13.612Z,81.90
2017-10-19T23:38:41.954Z,82.10
2017-10-19T23:41:09.501Z,82.00
2017-10-19T23:43:37.098Z,82.00
2017-10-19T23:46:04.622Z,82.10
2017-10-19T23:48:32.205Z,82.20
2017-10-19T23:50:59.747Z,82.30
2017-10-19T23:53:27.341Z,82.30
2017-10-19T23:55:54.881Z,82.40
2017-10-19T23:58:22.471Z,82.50
